Time;durP1;ratioP1;P1;durP2;ratioP2;P2;SDS_P1;SDS_P2;PMS_P1;PMS_P2;Temp;Humidity;BMP_temperature;BMP_pressure;BME280_temperature;BME280_humidity;BME280_pressure;Samples;Min_cycle;Max_cycle;Signal;HPM_P1;HPM_P2
2021/04/20 00:00:10;;;;;;;;;;;7.90;99.90;;;;;;5078190;28;19924;-84
2021/04/20 00:02:37;;;;;;;;;;;7.80;99.90;;;;;;5090765;28;19924;-85
2021/04/20 00:05:10;;;;;;;;;;;7.70;99.90;;;;;;5089500;28;19943;-85
2021/04/20 00:07:38;;;;;;;;;;;7.70;99.90;;;;;;5088362;28;20606;-85
2021/04/20 00:10:13;;;;;;;;;;;7.60;99.90;;;;;;5089702;28;19932;-85
2021/04/20 00:12:40;;;;;;;;;;;7.50;99.90;;;;;;5091542;28;20623;-86
2021/04/20 00:15:08;;;;;;;;;;;7.50;99.90;;;;;;5090815;28;19924;-85
2021/04/20 00:17:35;;;;;;;;;;;7.40;99.90;;;;;;5088341;28;19924;-86
2021/04/20 00:20:08;;;;;;;;;;;7.30;99.90;;;;;;5079529;28;19925;-86
2021/04/20 00:22:35;;;;;;;;;;;7.10;99.90;;;;;;5097644;28;19939;-85
2021/04/20 00:25:02;;;;;;;;;;;7.20;99.90;;;;;;5096644;28;20450;-84
2021/04/20 00:27:29;;;;;;;;;;;7.50;99.90;;;;;;5087405;28;19924;-85
2021/04/20 00:30:01;;;;;;;;;;;7.00;99.90;;;;;;5087287;28;19924;-85
2021/04/20 00:32:28;;;;;;;;;;;7.10;99.90;;;;;;5090899;28;19924;-85
2021/04/20 00:34:55;;;;;;;;;;;7.00;99.90;;;;;;5088307;28;19935;-83
2021/04/20 00:37:22;;;;;;;;;;;7.00;99.90;;;;;;5087767;28;19932;-85
2021/04/20 00:39:49;;;;;;;;;;;7.00;99.90;;;;;;5077819;28;19930;-84
2021/04/20 00:42:16;;;;;;;;;;;7.00;99.90;;;;;;5091552;28;19928;-84
2021/04/20 00:44:44;;;;;;;;;;;6.90;99.90;;;;;;5078998;28;19924;-84
2021/04/20 00:47:11;;;;;;;;;;;6.60;99.90;;;;;;5071166;28;19925;-87
2021/04/20 00:49:38;;;;;;;;;;;6.80;99.90;;;;;;5090034;28;19931;-87
2021/04/20 00:52:06;;;;;;;;;;;6.70;99.90;;;;;;5076493;28;19951;-87
2021/04/20 00:54:33;;;;;;;;;;;6.80;99.90;;;;;;5058776;28;19932;-88
2021/04/20 00:57:00;;;;;;;;;;;6.70;99.90;;;;;;5088376;28;19935;-87
2021/04/20 00:59:27;;;;;;;;;;;6.70;99.90;;;;;;5082020;28;20390;-87
2021/04/20 01:01:55;;;;;;;;;;;6.60;99.90;;;;;;5062590;28;19928;-87
2021/04/20 01:04:22;;;;;;;;;;;6.60;99.90;;;;;;5081914;28;19925;-88
2021/04/20 01:06:50;;;;;;;;;;;6.60;99.90;;;;;;5085851;28;20637;-84
2021/04/20 01:09:17;;;;;;;;;;;6.60;99.90;;;;;;5083191;28;19924;-85
2021/04/20 01:11:45;;;;;;;;;;;6.60;99.90;;;;;;5087553;28;20103;-88
2021/04/20 01:14:13;;;;;;;;;;;6.50;99.90;;;;;;5052702;28;19924;-83
2021/04/20 01:16:40;;;;;;;;;;;6.60;99.90;;;;;;5080553;28;19939;-84
2021/04/20 01:19:07;;;;;;;;;;;6.20;99.90;;;;;;5090227;28;19928;-85
2021/04/20 01:21:36;;;;;;;;;;;6.50;99.90;;;;;;5090724;28;20087;-85
2021/04/20 01:24:09;;;;;;;;;;;6.50;99.90;;;;;;5084197;28;20448;-84
2021/04/20 01:26:43;;;;;;;;;;;6.50;99.90;;;;;;5089735;28;19924;-85
2021/04/20 01:29:10;;;;;;;;;;;6.40;99.90;;;;;;5091909;28;20027;-87
2021/04/20 01:31:40;;;;;;;;;;;6.40;99.90;;;;;;5090038;28;19928;-85
2021/04/20 01:34:07;;;;;;;;;;;6.30;99.90;;;;;;5060360;28;19931;-86
2021/04/20 01:36:34;;;;;;;;;;;6.20;99.90;;;;;;5038130;28;19925;-85
2021/04/20 01:39:04;;;;;;;;;;;6.30;99.90;;;;;;5073241;28;19936;-86
2021/04/20 01:41:33;;;;;;;;;;;6.10;99.90;;;;;;5089069;28;20371;-86
2021/04/20 01:44:01;;;;;;;;;;;6.20;99.90;;;;;;5071355;28;19931;-84
2021/04/20 01:46:28;;;;;;;;;;;6.20;99.90;;;;;;5078350;28;19931;-83
2021/04/20 01:48:55;;;;;;;;;;;6.20;99.90;;;;;;5090760;28;19924;-86
2021/04/20 01:51:23;;;;;;;;;;;6.30;99.90;;;;;;5073206;28;19924;-85
2021/04/20 01:53:51;;;;;;;;;;;6.10;99.90;;;;;;5075513;28;19925;-85
2021/04/20 01:56:18;;;;;;;;;;;6.10;99.90;;;;;;5093557;28;19912;-85
2021/04/20 01:58:46;;;;;;;;;;;6.00;99.90;;;;;;5098378;28;19928;-86
2021/04/20 02:01:15;;;;;;;;;;;6.00;99.90;;;;;;5099054;28;20034;-85
2021/04/20 02:03:43;;;;;;;;;;;6.00;99.90;;;;;;5078832;28;19924;-87
2021/04/20 02:06:11;;;;;;;;;;;6.10;99.90;;;;;;5088460;28;19924;-85
2021/04/20 02:08:39;;;;;;;;;;;6.00;99.90;;;;;;5072825;28;19924;-86
2021/04/20 02:11:08;;;;;;;;;;;5.90;99.90;;;;;;5085540;28;19928;-86
2021/04/20 02:13:35;;;;;;;;;;;5.90;99.90;;;;;;5091235;28;19928;-86
2021/04/20 02:16:03;;;;;;;;;;;5.80;99.90;;;;;;5052417;28;20372;-85
2021/04/20 02:18:35;;;;;;;;;;;6.00;99.90;;;;;;5090042;28;20394;-87
2021/04/20 02:21:03;;;;;;;;;;;6.00;99.90;;;;;;5084297;28;19924;-85
2021/04/20 02:23:31;;;;;;;;;;;5.80;99.90;;;;;;5108088;28;19928;-86
2021/04/20 02:26:08;;;;;;;;;;;5.80;99.90;;;;;;5098458;28;19924;-84
2021/04/20 02:28:35;;;;;;;;;;;5.70;99.90;;;;;;5088048;28;19932;-85
2021/04/20 02:31:05;;;;;;;;;;;5.60;99.90;;;;;;5075973;28;19943;-85
2021/04/20 02:33:33;;;;;;;;;;;5.70;99.90;;;;;;5091165;28;19924;-85
2021/04/20 02:36:01;;;;;;;;;;;5.50;99.90;;;;;;5077003;28;19932;-86
2021/04/20 02:38:28;;;;;;;;;;;5.50;99.90;;;;;;5077891;28;19933;-85
2021/04/20 02:40:56;;;;;;;;;;;5.50;99.90;;;;;;5075295;28;19925;-85
2021/04/20 02:43:25;;;;;;;;;;;5.50;99.90;;;;;;5091921;28;20586;-86
2021/04/20 02:45:53;;;;;;;;;;;5.50;99.90;;;;;;5069521;28;19935;-85
2021/04/20 02:48:21;;;;;;;;;;;5.40;99.90;;;;;;5087166;28;19935;-86
2021/04/20 02:50:50;;;;;;;;;;;5.30;99.90;;;;;;5071669;28;20534;-86
2021/04/20 02:53:18;;;;;;;;;;;5.40;99.90;;;;;;5096454;28;19935;-86
2021/04/20 02:55:46;;;;;;;;;;;5.40;99.90;;;;;;5096613;28;19931;-86
2021/04/20 02:58:23;;;;;;;;;;;5.30;99.90;;;;;;5056979;28;19924;-84
2021/04/20 03:01:17;;;;;;;;;;;5.00;99.90;;;;;;5079246;28;19931;-85
2021/04/20 03:03:47;;;;;;;;;;;5.30;99.90;;;;;;5093202;28;19928;-86
2021/04/20 03:06:14;;;;;;;;;;;5.20;99.90;;;;;;5093033;28;20572;-85
2021/04/20 03:08:47;;;;;;;;;;;5.20;99.90;;;;;;5096904;28;19932;-84
2021/04/20 03:11:21;;;;;;;;;;;5.20;99.90;;;;;;5089541;28;19931;-84
2021/04/20 03:13:49;;;;;;;;;;;5.20;99.90;;;;;;5058191;28;19924;-85
2021/04/20 03:16:29;;;;;;;;;;;5.10;99.90;;;;;;5092038;28;19931;-85
2021/04/20 03:18:57;;;;;;;;;;;5.10;99.90;;;;;;5100406;28;19920;-85
2021/04/20 03:21:24;;;;;;;;;;;5.10;99.90;;;;;;5111196;28;19939;-83
2021/04/20 03:23:54;;;;;;;;;;;5.40;99.90;;;;;;5119859;28;19912;-85
2021/04/20 03:26:24;;;;;;;;;;;5.50;99.90;;;;;;5100286;28;19917;-84
2021/04/20 03:28:53;;;;;;;;;;;5.10;99.90;;;;;;5106674;28;19924;-85
2021/04/20 03:31:21;;;;;;;;;;;5.10;99.90;;;;;;5106798;28;19925;-85
2021/04/20 03:33:50;;;;;;;;;;;5.00;99.90;;;;;;5059184;28;19925;-87
2021/04/20 03:36:23;;;;;;;;;;;5.00;99.90;;;;;;5089111;28;20390;-86
2021/04/20 03:38:56;;;;;;;;;;;4.90;99.90;;;;;;5074843;28;20402;-86
2021/04/20 03:41:25;;;;;;;;;;;4.90;99.90;;;;;;5058532;28;19932;-86
2021/04/20 03:43:55;;;;;;;;;;;4.80;99.90;;;;;;5088535;28;19936;-86
2021/04/20 03:46:25;;;;;;;;;;;4.80;99.90;;;;;;5077344;28;19932;-86
2021/04/20 03:48:58;;;;;;;;;;;4.70;99.90;;;;;;5093064;28;19924;-86
2021/04/20 03:51:26;;;;;;;;;;;4.90;99.90;;;;;;5068683;28;20454;-86
2021/04/20 03:53:54;;;;;;;;;;;4.80;99.90;;;;;;5080392;28;19947;-85
2021/04/20 03:56:26;;;;;;;;;;;4.70;99.90;;;;;;5093482;28;19928;-85
2021/04/20 03:58:54;;;;;;;;;;;2.50;99.90;;;;;;5057926;28;19924;-85
2021/04/20 04:01:22;;;;;;;;;;;4.80;99.90;;;;;;5065829;28;20280;-86
2021/04/20 04:03:51;;;;;;;;;;;4.80;99.90;;;;;;5093359;28;19931;-86
2021/04/20 04:06:19;;;;;;;;;;;4.70;99.90;;;;;;5083983;28;19924;-87
2021/04/20 04:08:48;;;;;;;;;;;5.00;99.90;;;;;;5092097;28;19924;-86
2021/04/20 04:11:15;;;;;;;;;;;4.60;99.90;;;;;;5071791;28;19929;-83
2021/04/20 04:13:43;;;;;;;;;;;4.60;99.90;;;;;;5078132;28;19928;-86
2021/04/20 04:16:13;;;;;;;;;;;4.60;99.90;;;;;;5072474;28;19932;-87
2021/04/20 04:18:46;;;;;;;;;;;4.60;99.90;;;;;;5090163;28;19935;-85
2021/04/20 04:21:16;;;;;;;;;;;4.50;99.90;;;;;;5095045;28;20427;-86
2021/04/20 04:23:45;;;;;;;;;;;4.50;99.90;;;;;;5109459;28;19924;-84
2021/04/20 04:26:19;;;;;;;;;;;4.50;99.90;;;;;;5090366;28;19925;-86
2021/04/20 04:28:47;;;;;;;;;;;4.70;99.90;;;;;;5092563;28;20647;-85
2021/04/20 04:31:16;;;;;;;;;;;4.50;99.90;;;;;;5072383;28;19943;-85
2021/04/20 04:33:44;;;;;;;;;;;4.50;99.90;;;;;;5071555;28;20291;-86
2021/04/20 04:36:11;;;;;;;;;;;4.50;99.90;;;;;;5084369;28;20384;-88
2021/04/20 04:38:39;;;;;;;;;;;4.50;99.90;;;;;;5092660;28;19924;-84
2021/04/20 04:41:07;;;;;;;;;;;4.60;99.90;;;;;;5068863;28;19928;-85
2021/04/20 04:43:35;;;;;;;;;;;4.50;99.90;;;;;;5086795;28;20429;-89
2021/04/20 04:46:02;;;;;;;;;;;4.40;99.90;;;;;;5086986;28;19927;-85
2021/04/20 04:48:29;;;;;;;;;;;4.50;99.90;;;;;;5063971;28;19925;-85
2021/04/20 04:50:59;;;;;;;;;;;4.50;99.90;;;;;;5071886;28;19928;-84
2021/04/20 04:53:26;;;;;;;;;;;4.50;99.90;;;;;;5094583;28;19924;-85
2021/04/20 04:55:55;;;;;;;;;;;4.20;99.90;;;;;;5090597;28;19925;-85
2021/04/20 04:58:26;;;;;;;;;;;4.40;99.90;;;;;;5066103;28;19928;-86
2021/04/20 05:01:00;;;;;;;;;;;4.30;99.90;;;;;;5071923;28;19924;-87
2021/04/20 05:03:27;;;;;;;;;;;4.30;99.90;;;;;;5081726;28;20296;-86
2021/04/20 05:05:59;;;;;;;;;;;4.30;99.90;;;;;;5051324;28;19939;-85
2021/04/20 05:08:26;;;;;;;;;;;4.30;99.90;;;;;;5088227;28;19924;-85
2021/04/20 05:11:00;;;;;;;;;;;4.30;99.90;;;;;;5071590;28;19924;-85
2021/04/20 05:13:27;;;;;;;;;;;4.30;99.90;;;;;;5070005;28;19935;-86
2021/04/20 05:15:54;;;;;;;;;;;4.30;99.90;;;;;;5068336;28;19924;-85
2021/04/20 05:18:23;;;;;;;;;;;4.30;99.90;;;;;;5084402;28;19931;-85
2021/04/20 05:20:50;;;;;;;;;;;4.30;99.90;;;;;;5090579;28;19936;-85
2021/04/20 05:23:18;;;;;;;;;;;;;;;;;;5078049;28;19952;-84
2021/04/20 05:25:45;;;;;;;;;;;4.40;99.90;;;;;;5059344;28;19932;-85
2021/04/20 05:28:12;;;;;;;;;;;4.30;99.90;;;;;;5072285;28;19935;-86
2021/04/20 05:30:39;;;;;;;;;;;4.40;99.90;;;;;;5086554;28;19933;-85
2021/04/20 05:33:06;;;;;;;;;;;4.40;99.90;;;;;;5088353;28;19924;-85
2021/04/20 05:35:33;;;;;;;;;;;4.50;99.90;;;;;;5062904;28;19925;-85
2021/04/20 05:38:00;;;;;;;;;;;4.60;99.90;;;;;;5084658;28;19935;-90
2021/04/20 05:40:30;;;;;;;;;;;4.60;99.90;;;;;;5043818;28;19932;-86
2021/04/20 05:42:57;;;;;;;;;;;4.70;99.90;;;;;;5062996;28;20466;-88
2021/04/20 05:45:25;;;;;;;;;;;4.60;99.90;;;;;;5073653;28;19929;-88
2021/04/20 05:47:52;;;;;;;;;;;4.90;99.90;;;;;;5073808;28;20404;-85
2021/04/20 05:50:24;;;;;;;;;;;4.80;99.90;;;;;;5079764;28;19928;-86
2021/04/20 05:52:51;;;;;;;;;;;4.70;99.90;;;;;;5060428;28;19932;-85
2021/04/20 05:55:19;;;;;;;;;;;5.10;99.90;;;;;;5068489;28;19925;-86
2021/04/20 05:57:46;;;;;;;;;;;5.10;99.90;;;;;;5067830;28;20456;-86
2021/04/20 06:00:15;;;;;;;;;;;5.10;99.90;;;;;;5079003;28;19929;-84
2021/04/20 06:02:42;;;;;;;;;;;5.10;99.90;;;;;;5065999;28;19927;-88
2021/04/20 06:05:11;;;;;;;;;;;5.30;99.90;;;;;;5053066;28;20299;-88
2021/04/20 06:07:40;;;;;;;;;;;5.40;99.90;;;;;;5064443;28;19939;-88
2021/04/20 06:10:08;;;;;;;;;;;;;;;;;;5069208;28;19928;-87
2021/04/20 06:12:38;;;;;;;;;;;5.40;99.90;;;;;;5057186;28;19961;-88
2021/04/20 06:15:06;;;;;;;;;;;5.60;99.90;;;;;;5050542;28;19928;-88
2021/04/20 06:17:59;;;;;;;;;;;5.70;99.90;;;;;;5082124;27;19940;-87
2021/04/20 06:20:28;;;;;;;;;;;5.80;99.90;;;;;;5061983;28;20053;-87
2021/04/20 06:22:57;;;;;;;;;;;5.80;99.90;;;;;;5038278;28;19924;-92
2021/04/20 06:25:25;;;;;;;;;;;5.90;99.90;;;;;;5055601;28;19926;-88
2021/04/20 06:27:52;;;;;;;;;;;6.00;99.90;;;;;;5024822;28;19928;-88
2021/04/20 06:30:20;;;;;;;;;;;6.10;99.90;;;;;;5025529;28;19929;-83
2021/04/20 06:32:48;;;;;;;;;;;6.20;99.90;;;;;;5049490;28;19928;-86
2021/04/20 06:35:17;;;;;;;;;;;6.20;99.90;;;;;;5030511;28;19928;-86
2021/04/20 06:37:45;;;;;;;;;;;6.30;99.90;;;;;;5046240;28;19932;-90
2021/04/20 06:40:13;;;;;;;;;;;6.40;99.90;;;;;;5050729;28;19928;-82
2021/04/20 06:42:46;;;;;;;;;;;6.40;99.90;;;;;;5013155;28;19933;-86
2021/04/20 06:45:17;;;;;;;;;;;6.50;99.90;;;;;;5044848;28;19932;-87
2021/04/20 06:47:57;;;;;;;;;;;6.60;99.90;;;;;;5049947;28;19924;-88
2021/04/20 06:50:26;;;;;;;;;;;6.60;99.90;;;;;;5047271;28;20324;-87
2021/04/20 06:53:00;;;;;;;;;;;6.70;99.90;;;;;;5050600;28;20261;-86
2021/04/20 06:55:40;;;;;;;;;;;6.80;99.90;;;;;;5029249;28;20047;-86
2021/04/20 06:58:09;;;;;;;;;;;6.80;99.90;;;;;;5021561;28;19926;-85
2021/04/20 07:00:41;;;;;;;;;;;6.90;99.90;;;;;;5040943;28;20079;-86
2021/04/20 07:03:17;;;;;;;;;;;7.00;99.90;;;;;;5038428;28;19925;-88
2021/04/20 07:06:03;;;;;;;;;;;7.00;99.90;;;;;;5020826;28;19925;-86
2021/04/20 07:08:34;;;;;;;;;;;7.30;99.90;;;;;;5027072;28;20291;-86
2021/04/20 07:11:05;;;;;;;;;;;7.30;99.90;;;;;;5041577;28;19929;-85
2021/04/20 07:13:35;;;;;;;;;;;7.50;99.90;;;;;;5003156;28;19929;-88
2021/04/20 07:16:10;;;;;;;;;;;7.50;99.90;;;;;;5044100;28;19925;-86
2021/04/20 07:18:55;;;;;;;;;;;7.60;99.90;;;;;;5062822;28;19928;-85
2021/04/20 07:21:43;;;;;;;;;;;7.70;99.90;;;;;;5042772;28;19959;-85
2021/04/20 07:24:13;;;;;;;;;;;7.70;99.90;;;;;;5058664;28;20295;-86
2021/04/20 07:26:46;;;;;;;;;;;7.90;99.90;;;;;;5044832;28;20406;-87
2021/04/20 07:29:26;;;;;;;;;;;8.00;99.90;;;;;;5023299;28;19932;-86
2021/04/20 07:32:12;;;;;;;;;;;8.10;99.90;;;;;;5026725;28;19925;-85
2021/04/20 07:34:48;;;;;;;;;;;8.20;99.90;;;;;;5048418;28;19928;-86
2021/04/20 07:37:30;;;;;;;;;;;8.30;99.90;;;;;;5048543;28;19929;-85
2021/04/20 07:40:20;;;;;;;;;;;8.40;99.90;;;;;;5030766;28;20434;-86
2021/04/20 07:42:51;;;;;;;;;;;8.60;99.90;;;;;;5059707;28;19928;-85
2021/04/20 07:45:24;;;;;;;;;;;8.60;99.90;;;;;;5052618;28;19932;-86
2021/04/20 07:47:59;;;;;;;;;;;8.80;99.90;;;;;;5062575;28;19924;-86
2021/04/20 07:50:38;;;;;;;;;;;8.80;99.90;;;;;;5059853;28;19956;-86
2021/04/20 07:53:09;;;;;;;;;;;8.90;99.90;;;;;;5065514;28;20011;-87
2021/04/20 07:55:46;;;;;;;;;;;9.00;99.90;;;;;;5041526;28;19932;-87
2021/04/20 07:58:20;;;;;;;;;;;9.10;99.90;;;;;;5039263;28;19932;-87
2021/04/20 08:00:54;;;;;;;;;;;9.10;99.90;;;;;;5044408;28;19925;-89
2021/04/20 08:03:34;;;;;;;;;;;9.30;99.90;;;;;;5055454;28;19932;-87
2021/04/20 08:06:11;;;;;;;;;;;9.40;99.90;;;;;;5047151;28;20417;-89
2021/04/20 08:09:00;;;;;;;;;;;9.50;99.90;;;;;;5063427;28;19924;-88
2021/04/20 08:11:31;;;;;;;;;;;9.60;99.90;;;;;;5044665;28;19932;-88
2021/04/20 08:14:04;;;;;;;;;;;9.60;99.90;;;;;;5025978;28;19925;-90
2021/04/20 08:16:41;;;;;;;;;;;9.70;99.90;;;;;;5047953;28;19929;-89
2021/04/20 08:19:08;;;;;;;;;;;10.00;99.90;;;;;;5074405;28;19948;-89
2021/04/20 08:21:41;;;;;;;;;;;10.00;99.90;;;;;;5043393;28;19928;-88
2021/04/20 08:24:13;;;;;;;;;;;10.10;99.90;;;;;;5058139;28;20375;-89
2021/04/20 08:26:44;;;;;;;;;;;10.20;99.90;;;;;;5047222;28;19925;-89
2021/04/20 08:29:24;;;;;;;;;;;10.30;99.90;;;;;;5055664;28;19908;-89
2021/04/20 08:31:57;;;;;;;;;;;10.40;99.90;;;;;;5062690;28;19931;-90
2021/04/20 08:34:44;;;;;;;;;;;10.70;99.90;;;;;;5034128;28;20280;-89
2021/04/20 08:37:33;;;;;;;;;;;10.50;99.90;;;;;;5036775;28;19925;-90
2021/04/20 08:40:37;;;;;;;;;;;10.60;99.90;;;;;;5045420;28;19928;-90
2021/04/20 08:43:16;;;;;;;;;;;10.70;99.90;;;;;;4998943;28;19926;-88
2021/04/20 08:45:50;;;;;;;;;;;10.80;99.90;;;;;;5039437;28;19932;-89
2021/04/20 08:48:23;;;;;;;;;;;10.90;99.90;;;;;;5058925;28;19936;-90
2021/04/20 08:51:05;;;;;;;;;;;10.90;99.90;;;;;;5039039;28;19925;-88
2021/04/20 08:53:38;;;;;;;;;;;11.20;99.90;;;;;;5046952;28;19928;-92
2021/04/20 08:56:14;;;;;;;;;;;11.20;99.90;;;;;;5041790;28;19936;-90
2021/04/20 08:58:41;;;;;;;;;;;11.30;99.90;;;;;;5051304;28;19925;-90
2021/04/20 09:01:27;;;;;;;;;;;11.40;99.90;;;;;;5054862;28;19932;-89
2021/04/20 09:04:00;;;;;;;;;;;11.60;99.90;;;;;;5057570;28;20527;-90
2021/04/20 09:06:32;;;;;;;;;;;11.70;99.90;;;;;;5075371;28;19925;-88
2021/04/20 09:09:03;;;;;;;;;;;11.90;99.90;;;;;;5069137;28;19924;-90
2021/04/20 09:11:35;;;;;;;;;;;11.90;99.90;;;;;;5067341;28;19929;-90
2021/04/20 09:14:06;;;;;;;;;;;11.90;99.90;;;;;;5036987;28;19925;-90
2021/04/20 09:16:34;;;;;;;;;;;11.90;99.90;;;;;;5037644;28;19948;-92
2021/04/20 09:19:05;;;;;;;;;;;12.00;99.90;;;;;;5028596;28;20411;-90
2021/04/20 09:21:44;;;;;;;;;;;12.10;99.90;;;;;;5017390;28;19940;-89
2021/04/20 09:24:19;;;;;;;;;;;12.30;99.90;;;;;;5016516;28;20381;-90
2021/04/20 09:27:09;;;;;;;;;;;12.30;99.90;;;;;;5027378;28;19925;-90
2021/04/20 09:29:55;;;;;;;;;;;12.50;99.90;;;;;;5013831;28;19924;-89
2021/04/20 09:32:50;;;;;;;;;;;12.60;99.90;;;;;;5047974;28;19932;-90
2021/04/20 09:35:17;;;;;;;;;;;12.50;99.90;;;;;;5065639;28;20462;-89
2021/04/20 09:37:45;;;;;;;;;;;12.60;99.90;;;;;;5041004;28;19925;-90
2021/04/20 09:40:17;;;;;;;;;;;12.70;99.90;;;;;;5026828;28;19929;-89
2021/04/20 09:43:00;;;;;;;;;;;12.80;99.90;;;;;;5031719;28;19925;-88
2021/04/20 09:45:40;;;;;;;;;;;12.60;99.90;;;;;;5028207;28;19929;-88
2021/04/20 09:48:08;;;;;;;;;;;12.90;99.90;;;;;;5041217;28;20391;-88
2021/04/20 09:51:01;;;;;;;;;;;12.90;99.90;;;;;;5027843;28;20324;-88
2021/04/20 09:53:41;;;;;;;;;;;13.00;99.90;;;;;;5017899;28;19925;-88
2021/04/20 09:56:17;;;;;;;;;;;13.20;99.90;;;;;;5051016;28;19935;-88
2021/04/20 09:58:46;;;;;;;;;;;13.70;99.90;;;;;;5014486;23;19925;-91
2021/04/20 10:01:29;;;;;;;;;;;13.60;99.90;;;;;;5020094;28;19932;-90
2021/04/20 10:04:07;;;;;;;;;;;10.90;99.90;;;;;;5010030;28;20376;-89
2021/04/20 10:06:59;;;;;;;;;;;13.40;99.90;;;;;;5006432;28;19937;-89
2021/04/20 10:09:33;;;;;;;;;;;13.60;99.90;;;;;;4985732;28;19926;-92
2021/04/20 10:12:20;;;;;;;;;;;13.70;99.90;;;;;;5005554;28;19933;-92
2021/04/20 10:14:56;;;;;;;;;;;13.80;99.90;;;;;;4971512;28;20312;-90
2021/04/20 10:17:23;;;;;;;;;;;13.90;99.90;;;;;;4995313;28;20907;-90
2021/04/20 10:19:58;;;;;;;;;;;14.00;99.90;;;;;;4975361;28;19929;-88
2021/04/20 10:22:33;;;;;;;;;;;14.10;99.90;;;;;;5004670;28;20005;-89
2021/04/20 10:25:12;;;;;;;;;;;14.20;99.90;;;;;;4987961;28;19933;-89
2021/04/20 10:27:42;;;;;;;;;;;14.20;99.90;;;;;;5000779;28;19944;-90
2021/04/20 10:30:18;;;;;;;;;;;14.50;99.90;;;;;;4993818;28;20020;-92
2021/04/20 10:32:49;;;;;;;;;;;14.50;99.90;;;;;;4974350;28;19933;-90
2021/04/20 10:35:19;;;;;;;;;;;14.70;99.90;;;;;;5001158;28;19936;-89
2021/04/20 10:37:49;;;;;;;;;;;13.80;99.90;;;;;;5003952;28;19936;-89
2021/04/20 10:40:18;;;;;;;;;;;14.70;99.90;;;;;;4990499;28;19949;-90
2021/04/20 10:42:49;;;;;;;;;;;14.90;99.90;;;;;;5008181;28;19926;-90
2021/04/20 10:45:17;;;;;;;;;;;14.90;99.90;;;;;;4991832;28;19925;-89
2021/04/20 10:48:03;;;;;;;;;;;15.10;99.90;;;;;;4995283;28;19933;-89
2021/04/20 10:50:32;;;;;;;;;;;15.20;99.90;;;;;;4997325;28;19934;-89
2021/04/20 10:53:05;;;;;;;;;;;15.50;99.90;;;;;;5004654;28;19926;-90
2021/04/20 10:55:35;;;;;;;;;;;15.50;99.90;;;;;;4992997;28;19929;-89
2021/04/20 10:58:05;;;;;;;;;;;15.60;99.90;;;;;;5009564;28;20405;-91
2021/04/20 11:00:34;;;;;;;;;;;15.60;99.90;;;;;;4974630;28;19929;-92
2021/04/20 11:03:05;;;;;;;;;;;15.90;99.90;;;;;;5006548;28;20328;-91
2021/04/20 11:05:34;;;;;;;;;;;15.90;99.90;;;;;;4979145;28;19933;-91
2021/04/20 11:08:01;;;;;;;;;;;15.90;99.90;;;;;;4981473;28;19940;-92
2021/04/20 11:10:35;;;;;;;;;;;16.00;99.90;;;;;;4972777;28;19929;-92
2021/04/20 11:13:04;;;;;;;;;;;16.10;99.90;;;;;;4999012;28;20380;-91
2021/04/20 11:15:31;;;;;;;;;;;16.20;99.90;;;;;;4966820;28;19926;-90
2021/04/20 11:18:07;;;;;;;;;;;16.20;99.90;;;;;;4982961;28;19926;-91
2021/04/20 11:20:37;;;;;;;;;;;16.20;99.90;;;;;;4986206;28;19929;-90
2021/04/20 11:23:11;;;;;;;;;;;16.40;99.90;;;;;;4979294;28;19926;-90
2021/04/20 11:25:44;;;;;;;;;;;16.60;99.90;;;;;;4982423;28;19925;-89
2021/04/20 11:28:30;;;;;;;;;;;16.50;99.90;;;;;;5009028;28;19932;-91
2021/04/20 11:31:00;;;;;;;;;;;16.40;99.90;;;;;;4981963;28;20377;-89
2021/04/20 11:33:33;;;;;;;;;;;16.40;99.90;;;;;;4983838;28;19947;-92
2021/04/20 11:36:02;;;;;;;;;;;16.50;99.90;;;;;;4975915;28;19934;-90
2021/04/20 11:38:38;;;;;;;;;;;16.60;99.90;;;;;;5004656;28;19929;-92
2021/04/20 11:41:07;;;;;;;;;;;16.70;99.90;;;;;;4981446;28;19925;-89
2021/04/20 11:43:35;;;;;;;;;;;16.80;99.90;;;;;;4981579;28;19932;-90
2021/04/20 11:46:03;;;;;;;;;;;17.10;99.90;;;;;;4979579;28;19930;-87
2021/04/20 11:48:32;;;;;;;;;;;17.00;99.90;;;;;;4995990;28;20293;-89
2021/04/20 11:51:01;;;;;;;;;;;17.10;99.90;;;;;;4999323;28;19925;-89
2021/04/20 11:53:29;;;;;;;;;;;17.30;99.90;;;;;;5018410;28;19933;-90
2021/04/20 11:56:00;;;;;;;;;;;17.30;99.90;;;;;;4999062;28;19933;-91
2021/04/20 11:58:36;;;;;;;;;;;17.40;99.90;;;;;;4980386;28;19951;-91
2021/04/20 12:01:13;;;;;;;;;;;17.50;99.90;;;;;;4977692;28;19926;-90
2021/04/20 12:03:49;;;;;;;;;;;17.70;99.70;;;;;;5013563;28;19925;-90
2021/04/20 12:06:17;;;;;;;;;;;17.70;99.70;;;;;;4960344;28;19926;-91
2021/04/20 12:08:45;;;;;;;;;;;17.80;99.70;;;;;;4978983;28;20385;-90
2021/04/20 12:11:15;;;;;;;;;;;17.90;99.90;;;;;;4980485;28;20423;-93
2021/04/20 12:13:47;;;;;;;;;;;18.10;99.50;;;;;;4975476;28;19930;-90
2021/04/20 12:16:14;;;;;;;;;;;18.10;98.90;;;;;;5009317;28;20553;-91
2021/04/20 12:18:45;;;;;;;;;;;18.20;98.00;;;;;;4980207;28;19941;-90
2021/04/20 12:21:19;;;;;;;;;;;18.30;97.70;;;;;;4996996;28;21378;-91
2021/04/20 12:23:53;;;;;;;;;;;18.40;97.20;;;;;;4999691;28;19930;-89
2021/04/20 12:26:22;;;;;;;;;;;18.30;97.50;;;;;;4988368;28;19940;-89
2021/04/20 12:28:50;;;;;;;;;;;18.40;96.50;;;;;;4999571;28;19940;-90
2021/04/20 12:31:17;;;;;;;;;;;18.40;96.00;;;;;;4975726;28;19932;-82
2021/04/20 12:33:47;;;;;;;;;;;18.40;96.20;;;;;;4993887;28;20392;-85
2021/04/20 12:36:22;;;;;;;;;;;18.70;96.30;;;;;;4994234;28;20549;-88
2021/04/20 12:38:49;;;;;;;;;;;18.70;95.40;;;;;;5009089;28;19926;-85
2021/04/20 12:41:17;;;;;;;;;;;19.10;94.90;;;;;;4996144;28;19926;-84
2021/04/20 12:43:47;;;;;;;;;;;19.10;93.90;;;;;;5010344;28;19929;-85
2021/04/20 12:46:15;;;;;;;;;;;19.10;94.40;;;;;;5013945;28;19929;-84
2021/04/20 12:48:43;;;;;;;;;;;19.20;93.00;;;;;;4994335;28;19930;-85
2021/04/20 12:51:11;;;;;;;;;;;;;;;;;;5010783;28;20380;-83
2021/04/20 12:53:38;;;;;;;;;;;19.60;92.10;;;;;;5002259;28;19926;-84
2021/04/20 12:56:07;;;;;;;;;;;19.80;92.70;;;;;;5008553;28;19932;-85
2021/04/20 12:58:39;;;;;;;;;;;19.90;92.70;;;;;;4999329;28;20032;-84
2021/04/20 13:01:22;;;;;;;;;;;20.10;92.00;;;;;;5007776;28;20320;-89
2021/04/20 13:03:50;;;;;;;;;;;19.70;91.40;;;;;;5017423;28;19925;-85
2021/04/20 13:06:19;;;;;;;;;;;20.00;90.40;;;;;;4983617;28;20384;-87
2021/04/20 13:08:47;;;;;;;;;;;20.10;90.80;;;;;;5022539;28;19929;-86
2021/04/20 13:11:34;;;;;;;;;;;20.20;90.40;;;;;;4979949;28;19937;-85
2021/04/20 13:14:07;;;;;;;;;;;20.20;90.60;;;;;;4994998;28;19926;-87
2021/04/20 13:16:35;;;;;;;;;;;20.40;90.50;;;;;;4997677;28;19929;-82
2021/04/20 13:19:07;;;;;;;;;;;20.60;89.50;;;;;;5006655;28;19940;-92
2021/04/20 13:21:35;;;;;;;;;;;20.60;88.90;;;;;;5009119;28;19929;-93
2021/04/20 13:24:04;;;;;;;;;;;20.20;88.20;;;;;;4989528;28;19930;-93
2021/04/20 13:26:36;;;;;;;;;;;;;;;;;;4996671;28;19925;-92
2021/04/20 13:29:10;;;;;;;;;;;19.60;88.50;;;;;;4996134;28;19936;-90
2021/04/20 13:31:40;;;;;;;;;;;19.30;88.30;;;;;;4990029;28;19925;-88
2021/04/20 13:34:10;;;;;;;;;;;19.20;88.90;;;;;;5001652;28;19936;-89
2021/04/20 13:36:41;;;;;;;;;;;19.30;89.20;;;;;;4991441;28;19926;-90
2021/04/20 13:39:12;;;;;;;;;;;21.80;90.50;;;;;;4993884;28;19925;-89
2021/04/20 13:41:46;;;;;;;;;;;20.00;88.90;;;;;;5004792;28;19925;-90
2021/04/20 13:44:14;;;;;;;;;;;20.10;86.30;;;;;;4990157;28;20283;-91
2021/04/20 13:46:45;;;;;;;;;;;20.30;87.00;;;;;;4983380;28;19945;-91
2021/04/20 13:49:13;;;;;;;;;;;20.20;86.10;;;;;;4994728;28;19933;-89
2021/04/20 13:51:49;;;;;;;;;;;20.20;85.40;;;;;;4995463;28;19940;-87
2021/04/20 13:54:22;;;;;;;;;;;20.10;85.90;;;;;;5005469;28;19925;-91
2021/04/20 13:56:54;;;;;;;;;;;20.40;84.10;;;;;;4993781;28;19918;-90
2021/04/20 13:59:25;;;;;;;;;;;20.50;85.50;;;;;;4973808;28;20246;-86
2021/04/20 14:01:53;;;;;;;;;;;20.70;83.90;;;;;;4985594;28;19930;-85
2021/04/20 14:04:30;;;;;;;;;;;21.10;84.00;;;;;;4985768;28;19930;-88
2021/04/20 14:06:58;;;;;;;;;;;20.70;82.30;;;;;;4984904;28;20539;-84
2021/04/20 14:09:27;;;;;;;;;;;21.50;82.00;;;;;;4994947;28;20382;-85
2021/04/20 14:12:03;;;;;;;;;;;21.90;80.20;;;;;;4988962;28;19933;-85
2021/04/20 14:14:36;;;;;;;;;;;22.50;79.20;;;;;;4986148;28;19926;-85
2021/04/20 14:17:04;;;;;;;;;;;22.80;76.30;;;;;;4986590;28;19936;-85
2021/04/20 14:19:33;;;;;;;;;;;23.10;75.70;;;;;;4981220;28;19941;-84
2021/04/20 14:22:06;;;;;;;;;;;23.50;75.70;;;;;;4987716;28;19930;-84
2021/04/20 14:24:34;;;;;;;;;;;23.70;75.60;;;;;;5002961;28;19930;-83
2021/04/20 14:27:06;;;;;;;;;;;23.80;73.10;;;;;;4980536;28;19930;-84
2021/04/20 14:29:35;;;;;;;;;;;24.10;71.90;;;;;;4960172;28;19941;-84
2021/04/20 14:32:06;;;;;;;;;;;23.90;70.70;;;;;;4984726;28;20129;-83
2021/04/20 14:34:39;;;;;;;;;;;24.30;71.70;;;;;;4987259;28;19953;-83
2021/04/20 14:37:07;;;;;;;;;;;24.80;70.20;;;;;;4978606;28;19941;-83
2021/04/20 14:39:36;;;;;;;;;;;24.80;68.30;;;;;;4988298;28;19937;-83
2021/04/20 14:42:04;;;;;;;;;;;24.90;68.40;;;;;;4987322;28;20554;-83
2021/04/20 14:44:33;;;;;;;;;;;24.70;68.50;;;;;;4981478;28;19965;-82
2021/04/20 14:47:03;;;;;;;;;;;24.70;67.50;;;;;;4985965;28;19934;-83
2021/04/20 14:49:31;;;;;;;;;;;24.80;66.90;;;;;;4984820;28;19945;-84